EGFF

Cardiff International Airport

Cardiff, United Kingdom
METAR EGFF 152150Z AUTO 23009KT 9999 OVC014 18/16 Q1014
Observed Flight Rules
Aug-15 @ 21:50 UTC (38 minutes ago) Marginal Visual Flight Rules
Wind Visibility Clouds
230° at 9 knots 10,000+ meters
  • Overcast at 1,400' AGL
Temperatures Readings
Current 18°C / 64°F
Dewpoint 16°C / 61°F
Humidity 88%
Altimeter 29.94" Hg
Pressure 1014 hPa
Elevation 67
METAR EGFF 152150Z AUTO 23009KT 9999 OVC014 18/16 Q1014
Observed Flight Rules
Aug-15 @ 21:50 UTC
(38 minutes ago)
MVFR
Wind Visibility
230° at 9 knots 10,000+ meters
Clouds
  • Overcast at 1,400' AGL
Temperature Dewpoint
18°C / 64°F 16°C / 61°F
Humidity Altimeter Pressure
88% 29.94" Hg 1014 hPa